Meteo Giornale » Osservazioni meteo Germania » Spangdahlem

ore: 20:56 - Osservazioni Meteo Spangdahlem
Lat. 49° 59' N Lon. 6° 42' E Alt. 365 metri s.l.m.

sereno Europe/Berlin

15 °C

Sereno

Temp. 24 Ore

10 °C

20 °C

Nord

0 Km/h

Dew point 10 °C

Umidità 72 %

Visibilità  10 Km

Il sole sorge alle ore 07:10

Il sole tramonta alle ore 19:44

Data e Ora Cielo e Fenomeni T °C DP °C Um. % Pres. hPa Vis. km Vento km/h
Oggi h: 20:56 sereno Sereno 15 10 72 1016 10 N 0
Oggi h: 19:56 sereno Sereno 15 10 72 1015 10 N 5.5
Oggi h: 18:56 poco_nuvoloso Poco Nuvoloso 17 10 63 1015 10 N 0
Oggi h: 17:56 coperto Coperto 18 10 59 1015 10 N 0
Oggi h: 17:43 coperto Coperto 19 8 48 1016 10 N 0
Oggi h: 17:11 molto_nuvoloso Molto Nuvoloso 20 8 45 1016 10 N 0
Oggi h: 16:56 nuvoloso Nuvoloso 20 9 49 1016 10 O 7.4
Oggi h: 14:56 molto_nuvoloso Molto Nuvoloso 18 10 59 1016 10 E/SE 7.4
Oggi h: 13:56 foschia Foschia 18 10 59 1017 8 E 7.4
Oggi h: 12:56 coperto Coperto 19 12 63 1017 10 N 0
Oggi h: 11:56 molto_nuvoloso Molto Nuvoloso 18 12 67 1017 10 N 0
Oggi h: 09:56 coperto Coperto 14 12 87 1017 10 N 0
Oggi h: 08:56 coperto Coperto 12 11 93 1017 10 N 0
Oggi h: 07:56 coperto Coperto 11 11 100 1017 10 N 0
Oggi h: 06:56 coperto Coperto 11 11 100 1017 10 N 0
Oggi h: 05:56 coperto Coperto 10 10 100 1017 10 N 0
Oggi h: 04:56 molto_nuvoloso Molto Nuvoloso 11 10 93 1017 10 N 0
Oggi h: 04:11 coperto Coperto 11 11 100 1018 10 N 0
Oggi h: 03:56 molto_nuvoloso Molto Nuvoloso 12 11 93 1018 10 N 0
Oggi h: 03:41 molto_nuvoloso Molto Nuvoloso 11 10 93 1018 10 N 0
Oggi h: 03:26 molto_nuvoloso Molto Nuvoloso 11 10 93 1018 10 N 0
Oggi h: 02:56 foschia Foschia 11 10 93 1018 6 N 0
Oggi h: 02:53 foschia Foschia 11 10 93 1018 4 N 0
Oggi h: 02:51 foschia Foschia 11 10 93 1018 3 N 0
Oggi h: 02:46 foschia Foschia 11 10 93 1018 2 N 0
Oggi h: 02:39 foschia Foschia 11 10 93 1018 3 N 0
Oggi h: 02:35 foschia Foschia 11 10 93 1018 2 N 0
Oggi h: 02:32 foschia Foschia 10 10 100 1018 3 N 0
Oggi h: 02:31 foschia Foschia 10 10 100 1018 3 N 0
Oggi h: 02:30 foschia Foschia 10 10 100 1018 4 N 0
Oggi h: 02:11 molto_nuvoloso Molto Nuvoloso 11 10 93 1018 10 N 0
Oggi h: 01:56 nuvoloso Nuvoloso 11 10 93 1018 10 N 0
Oggi h: 01:45 foschia Foschia 10 9 93 1019 6 N 0
Oggi h: 01:44 foschia Foschia 10 9 93 1019 5 N 0
Oggi h: 01:43 foschia Foschia 10 9 93 1019 4 N 0
Oggi h: 01:40 foschia Foschia 10 9 93 1019 2 N 0
Oggi h: 01:38 foschia Foschia 10 9 93 1019 2 N 0
Oggi h: 01:37 foschia Foschia 10 9 93 1019 3 N 0
Oggi h: 01:36 foschia Foschia 10 9 93 1019 5 N 0
Oggi h: 01:25 molto_nuvoloso Molto Nuvoloso 10 9 93 1018 10 N 0
Oggi h: 01:10 nuvoloso Nuvoloso 11 10 93 1018 10 N 0
Oggi h: 00:56 nuvoloso Nuvoloso 11 10 93 1018 10 N 0
Ieri h: 23:56 poco_nuvoloso Poco Nuvoloso 11 10 93 1019 10 N 0
Ieri h: 22:56 sereno Sereno 12 10 87 1018 10 N 0
Ieri h: 21:56 sereno Sereno 14 10 76 1018 10 N 0